sensor_id;sensor_type;location;lat;lon;timestamp;temperature;humidity
52609;DHT22;38503;48.544;12.142;2022-08-19T00:01:40;19.60;99.90
52609;DHT22;38503;48.544;12.142;2022-08-19T00:04:09;19.60;99.90
52609;DHT22;38503;48.544;12.142;2022-08-19T00:06:39;19.70;99.90
52609;DHT22;38503;48.544;12.142;2022-08-19T00:09:10;19.70;99.90
52609;DHT22;38503;48.544;12.142;2022-08-19T00:11:41;19.70;99.90
52609;DHT22;38503;48.544;12.142;2022-08-19T00:14:09;19.70;99.90
52609;DHT22;38503;48.544;12.142;2022-08-19T00:16:38;19.70;99.90
52609;DHT22;38503;48.544;12.142;2022-08-19T00:19:06;19.80;99.90
52609;DHT22;38503;48.544;12.142;2022-08-19T00:21:33;19.80;99.90
52609;DHT22;38503;48.544;12.142;2022-08-19T00:24:06;19.80;99.90
52609;DHT22;38503;48.544;12.142;2022-08-19T00:26:33;19.90;99.90
52609;DHT22;38503;48.544;12.142;2022-08-19T00:29:00;20.00;99.90
52609;DHT22;38503;48.544;12.142;2022-08-19T00:31:27;19.90;99.90
52609;DHT22;38503;48.544;12.142;2022-08-19T00:33:54;20.00;99.90
52609;DHT22;38503;48.544;12.142;2022-08-19T00:36:21;20.10;99.90
52609;DHT22;38503;48.544;12.142;2022-08-19T00:38:48;20.10;99.90
52609;DHT22;38503;48.544;12.142;2022-08-19T00:41:18;20.20;99.90
52609;DHT22;38503;48.544;12.142;2022-08-19T00:44:05;20.10;99.90
52609;DHT22;38503;48.544;12.142;2022-08-19T00:46:34;20.10;99.90
52609;DHT22;38503;48.544;12.142;2022-08-19T00:49:09;20.00;99.90
52609;DHT22;38503;48.544;12.142;2022-08-19T00:51:37;20.10;99.90
52609;DHT22;38503;48.544;12.142;2022-08-19T00:54:04;20.10;99.90
52609;DHT22;38503;48.544;12.142;2022-08-19T00:56:31;20.10;99.90
52609;DHT22;38503;48.544;12.142;2022-08-19T00:58:59;20.10;99.90
52609;DHT22;38503;48.544;12.142;2022-08-19T01:01:28;20.10;99.90
52609;DHT22;38503;48.544;12.142;2022-08-19T01:03:55;20.10;99.90
52609;DHT22;38503;48.544;12.142;2022-08-19T01:06:25;20.10;99.90
52609;DHT22;38503;48.544;12.142;2022-08-19T01:08:54;20.10;99.90
52609;DHT22;38503;48.544;12.142;2022-08-19T01:11:21;20.10;99.90
52609;DHT22;38503;48.544;12.142;2022-08-19T01:13:48;20.10;99.90
52609;DHT22;38503;48.544;12.142;2022-08-19T01:16:18;20.00;99.90
52609;DHT22;38503;48.544;12.142;2022-08-19T01:18:46;19.90;99.90
52609;DHT22;38503;48.544;12.142;2022-08-19T01:21:44;19.90;99.90
52609;DHT22;38503;48.544;12.142;2022-08-19T01:24:12;20.00;99.90
52609;DHT22;38503;48.544;12.142;2022-08-19T01:26:41;20.00;99.90
52609;DHT22;38503;48.544;12.142;2022-08-19T01:29:11;20.00;99.90
52609;DHT22;38503;48.544;12.142;2022-08-19T01:31:38;20.00;99.90
52609;DHT22;38503;48.544;12.142;2022-08-19T01:34:06;20.00;99.90
52609;DHT22;38503;48.544;12.142;2022-08-19T01:36:41;19.90;99.90
52609;DHT22;38503;48.544;12.142;2022-08-19T01:39:16;19.90;99.90
52609;DHT22;38503;48.544;12.142;2022-08-19T01:41:43;19.80;99.90
52609;DHT22;38503;48.544;12.142;2022-08-19T01:44:11;19.80;99.90
52609;DHT22;38503;48.544;12.142;2022-08-19T01:46:46;19.90;99.90
52609;DHT22;38503;48.544;12.142;2022-08-19T01:49:15;19.90;99.90
52609;DHT22;38503;48.544;12.142;2022-08-19T01:51:42;20.00;99.90
52609;DHT22;38503;48.544;12.142;2022-08-19T01:54:11;20.00;99.90
52609;DHT22;38503;48.544;12.142;2022-08-19T01:56:38;19.90;99.90
52609;DHT22;38503;48.544;12.142;2022-08-19T01:59:12;20.00;99.90
52609;DHT22;38503;48.544;12.142;2022-08-19T02:01:39;19.90;99.90
52609;DHT22;38503;48.544;12.142;2022-08-19T02:04:07;19.90;99.90
52609;DHT22;38503;48.544;12.142;2022-08-19T02:06:34;19.90;99.90
52609;DHT22;38503;48.544;12.142;2022-08-19T02:09:05;19.90;99.90
52609;DHT22;38503;48.544;12.142;2022-08-19T02:11:34;19.80;99.90
52609;DHT22;38503;48.544;12.142;2022-08-19T02:14:04;19.90;99.90
52609;DHT22;38503;48.544;12.142;2022-08-19T02:16:32;19.90;99.90
52609;DHT22;38503;48.544;12.142;2022-08-19T02:18:59;19.80;99.90
52609;DHT22;38503;48.544;12.142;2022-08-19T02:21:30;19.80;99.90
52609;DHT22;38503;48.544;12.142;2022-08-19T02:23:57;19.80;99.90
52609;DHT22;38503;48.544;12.142;2022-08-19T02:26:24;19.80;99.90
52609;DHT22;38503;48.544;12.142;2022-08-19T02:28:54;19.70;99.90
52609;DHT22;38503;48.544;12.142;2022-08-19T02:31:23;19.80;99.90
52609;DHT22;38503;48.544;12.142;2022-08-19T02:33:52;19.80;99.90
52609;DHT22;38503;48.544;12.142;2022-08-19T02:36:24;19.80;99.90
52609;DHT22;38503;48.544;12.142;2022-08-19T02:38:51;19.90;99.90
52609;DHT22;38503;48.544;12.142;2022-08-19T02:41:32;19.90;99.90
52609;DHT22;38503;48.544;12.142;2022-08-19T02:44:01;20.00;99.90
52609;DHT22;38503;48.544;12.142;2022-08-19T02:46:50;20.00;99.90
52609;DHT22;38503;48.544;12.142;2022-08-19T02:49:19;19.90;99.90
52609;DHT22;38503;48.544;12.142;2022-08-19T02:51:46;19.90;99.90
52609;DHT22;38503;48.544;12.142;2022-08-19T02:54:14;19.90;99.90
52609;DHT22;38503;48.544;12.142;2022-08-19T02:56:43;19.80;99.90
52609;DHT22;38503;48.544;12.142;2022-08-19T02:59:10;19.80;99.90
52609;DHT22;38503;48.544;12.142;2022-08-19T03:01:40;19.80;99.90
52609;DHT22;38503;48.544;12.142;2022-08-19T03:04:11;19.90;99.90
52609;DHT22;38503;48.544;12.142;2022-08-19T03:06:40;19.80;99.90
52609;DHT22;38503;48.544;12.142;2022-08-19T03:09:07;19.70;99.90
52609;DHT22;38503;48.544;12.142;2022-08-19T03:11:35;19.70;99.90
52609;DHT22;38503;48.544;12.142;2022-08-19T03:14:03;19.70;99.90
52609;DHT22;38503;48.544;12.142;2022-08-19T03:16:34;19.70;99.90
52609;DHT22;38503;48.544;12.142;2022-08-19T03:19:01;19.70;99.90
52609;DHT22;38503;48.544;12.142;2022-08-19T03:21:30;19.70;99.90
52609;DHT22;38503;48.544;12.142;2022-08-19T03:24:00;19.80;99.90
52609;DHT22;38503;48.544;12.142;2022-08-19T03:26:28;19.80;99.90
52609;DHT22;38503;48.544;12.142;2022-08-19T03:28:55;19.80;99.90
52609;DHT22;38503;48.544;12.142;2022-08-19T03:31:26;19.80;99.90
52609;DHT22;38503;48.544;12.142;2022-08-19T03:34:17;19.80;99.90
52609;DHT22;38503;48.544;12.142;2022-08-19T03:36:45;19.80;99.90
52609;DHT22;38503;48.544;12.142;2022-08-19T03:39:13;19.80;99.90
52609;DHT22;38503;48.544;12.142;2022-08-19T03:41:41;19.80;99.90
52609;DHT22;38503;48.544;12.142;2022-08-19T03:44:17;19.90;99.90
52609;DHT22;38503;48.544;12.142;2022-08-19T03:46:54;19.80;99.90
52609;DHT22;38503;48.544;12.142;2022-08-19T03:49:24;19.70;99.90
52609;DHT22;38503;48.544;12.142;2022-08-19T03:51:55;19.70;99.90
52609;DHT22;38503;48.544;12.142;2022-08-19T03:54:24;19.70;99.90
52609;DHT22;38503;48.544;12.142;2022-08-19T03:56:53;19.70;99.90
52609;DHT22;38503;48.544;12.142;2022-08-19T03:59:23;19.70;99.90
52609;DHT22;38503;48.544;12.142;2022-08-19T04:01:55;19.80;99.90
52609;DHT22;38503;48.544;12.142;2022-08-19T04:04:24;19.80;99.90
52609;DHT22;38503;48.544;12.142;2022-08-19T04:06:55;19.80;99.90
52609;DHT22;38503;48.544;12.142;2022-08-19T04:09:22;19.80;99.90
52609;DHT22;38503;48.544;12.142;2022-08-19T04:11:52;19.80;99.90
52609;DHT22;38503;48.544;12.142;2022-08-19T04:14:24;19.80;99.90
52609;DHT22;38503;48.544;12.142;2022-08-19T04:16:52;19.80;99.90
52609;DHT22;38503;48.544;12.142;2022-08-19T04:19:19;19.80;99.90
52609;DHT22;38503;48.544;12.142;2022-08-19T04:21:48;19.80;99.90
52609;DHT22;38503;48.544;12.142;2022-08-19T04:24:17;19.80;99.90
52609;DHT22;38503;48.544;12.142;2022-08-19T04:26:44;19.80;99.90
52609;DHT22;38503;48.544;12.142;2022-08-19T04:29:18;19.80;99.90
52609;DHT22;38503;48.544;12.142;2022-08-19T04:31:49;19.90;99.90
52609;DHT22;38503;48.544;12.142;2022-08-19T04:34:18;19.90;99.90
52609;DHT22;38503;48.544;12.142;2022-08-19T04:36:49;19.80;99.90
52609;DHT22;38503;48.544;12.142;2022-08-19T04:39:19;19.90;99.90
52609;DHT22;38503;48.544;12.142;2022-08-19T04:41:47;19.90;99.90
52609;DHT22;38503;48.544;12.142;2022-08-19T04:44:34;19.80;99.90
52609;DHT22;38503;48.544;12.142;2022-08-19T04:47:10;19.80;99.90
52609;DHT22;38503;48.544;12.142;2022-08-19T04:49:37;19.90;99.90
52609;DHT22;38503;48.544;12.142;2022-08-19T04:52:04;19.90;99.90
52609;DHT22;38503;48.544;12.142;2022-08-19T04:54:31;19.90;99.90
52609;DHT22;38503;48.544;12.142;2022-08-19T04:57:09;19.80;99.90
52609;DHT22;38503;48.544;12.142;2022-08-19T04:59:37;19.80;99.90
52609;DHT22;38503;48.544;12.142;2022-08-19T05:02:08;19.80;99.90
52609;DHT22;38503;48.544;12.142;2022-08-19T05:04:35;19.70;99.90
52609;DHT22;38503;48.544;12.142;2022-08-19T05:07:07;19.70;99.90
52609;DHT22;38503;48.544;12.142;2022-08-19T05:09:34;19.80;99.90
52609;DHT22;38503;48.544;12.142;2022-08-19T05:12:23;19.90;99.90
52609;DHT22;38503;48.544;12.142;2022-08-19T05:14:56;20.00;99.90
52609;DHT22;38503;48.544;12.142;2022-08-19T05:17:24;20.00;99.90
52609;DHT22;38503;48.544;12.142;2022-08-19T05:19:55;20.10;99.90
52609;DHT22;38503;48.544;12.142;2022-08-19T05:22:42;20.10;99.90
52609;DHT22;38503;48.544;12.142;2022-08-19T05:25:13;20.00;99.90
52609;DHT22;38503;48.544;12.142;2022-08-19T05:27:41;19.90;99.90
52609;DHT22;38503;48.544;12.142;2022-08-19T05:30:10;19.80;99.90
52609;DHT22;38503;48.544;12.142;2022-08-19T05:32:39;19.80;99.90
52609;DHT22;38503;48.544;12.142;2022-08-19T05:35:06;19.80;99.90
52609;DHT22;38503;48.544;12.142;2022-08-19T05:37:34;19.80;99.90
52609;DHT22;38503;48.544;12.142;2022-08-19T05:40:01;19.80;99.90
52609;DHT22;38503;48.544;12.142;2022-08-19T05:42:28;19.80;99.90
52609;DHT22;38503;48.544;12.142;2022-08-19T05:44:55;19.90;99.90
52609;DHT22;38503;48.544;12.142;2022-08-19T05:47:23;19.90;99.90
52609;DHT22;38503;48.544;12.142;2022-08-19T05:49:50;19.90;99.90
52609;DHT22;38503;48.544;12.142;2022-08-19T05:52:18;19.80;99.90
52609;DHT22;38503;48.544;12.142;2022-08-19T05:54:52;19.90;99.90
52609;DHT22;38503;48.544;12.142;2022-08-19T05:57:23;19.80;99.90
52609;DHT22;38503;48.544;12.142;2022-08-19T05:59:50;19.80;99.90
52609;DHT22;38503;48.544;12.142;2022-08-19T06:02:25;19.90;99.90
52609;DHT22;38503;48.544;12.142;2022-08-19T06:04:52;20.00;99.90
52609;DHT22;38503;48.544;12.142;2022-08-19T06:07:19;20.00;99.90
52609;DHT22;38503;48.544;12.142;2022-08-19T06:09:46;20.00;99.90
52609;DHT22;38503;48.544;12.142;2022-08-19T06:12:28;20.10;99.90
52609;DHT22;38503;48.544;12.142;2022-08-19T06:14:58;20.00;99.90
52609;DHT22;38503;48.544;12.142;2022-08-19T06:17:28;20.00;99.90
52609;DHT22;38503;48.544;12.142;2022-08-19T06:19:57;20.00;99.90
52609;DHT22;38503;48.544;12.142;2022-08-19T06:22:26;20.00;99.90
52609;DHT22;38503;48.544;12.142;2022-08-19T06:24:54;20.00;99.90
52609;DHT22;38503;48.544;12.142;2022-08-19T06:27:21;19.90;99.90
52609;DHT22;38503;48.544;12.142;2022-08-19T06:29:49;19.70;99.90
52609;DHT22;38503;48.544;12.142;2022-08-19T06:32:16;19.70;99.90
52609;DHT22;38503;48.544;12.142;2022-08-19T06:34:44;19.80;99.90
52609;DHT22;38503;48.544;12.142;2022-08-19T06:37:12;19.80;99.90
52609;DHT22;38503;48.544;12.142;2022-08-19T06:39:41;19.80;99.90
52609;DHT22;38503;48.544;12.142;2022-08-19T06:42:10;19.90;99.90
52609;DHT22;38503;48.544;12.142;2022-08-19T06:44:41;19.90;99.90
52609;DHT22;38503;48.544;12.142;2022-08-19T06:47:18;19.90;99.90
52609;DHT22;38503;48.544;12.142;2022-08-19T06:49:53;19.80;99.90
52609;DHT22;38503;48.544;12.142;2022-08-19T06:52:20;19.80;99.90
52609;DHT22;38503;48.544;12.142;2022-08-19T06:54:46;19.80;99.90
52609;DHT22;38503;48.544;12.142;2022-08-19T06:57:25;20.10;99.90
52609;DHT22;38503;48.544;12.142;2022-08-19T06:59:53;19.90;99.90
52609;DHT22;38503;48.544;12.142;2022-08-19T07:02:21;19.90;99.90
52609;DHT22;38503;48.544;12.142;2022-08-19T07:04:52;19.80;99.90
52609;DHT22;38503;48.544;12.142;2022-08-19T07:07:20;19.80;99.90
52609;DHT22;38503;48.544;12.142;2022-08-19T07:09:49;19.80;99.90
52609;DHT22;38503;48.544;12.142;2022-08-19T07:12:24;20.00;99.90
52609;DHT22;38503;48.544;12.142;2022-08-19T07:14:52;19.90;99.90
52609;DHT22;38503;48.544;12.142;2022-08-19T07:17:20;20.00;99.90
52609;DHT22;38503;48.544;12.142;2022-08-19T07:19:47;20.00;99.90
52609;DHT22;38503;48.544;12.142;2022-08-19T07:22:14;19.90;99.90
52609;DHT22;38503;48.544;12.142;2022-08-19T07:24:43;20.00;99.90
52609;DHT22;38503;48.544;12.142;2022-08-19T07:27:18;19.90;99.90
52609;DHT22;38503;48.544;12.142;2022-08-19T07:29:52;20.10;99.90
52609;DHT22;38503;48.544;12.142;2022-08-19T07:32:24;20.20;99.90
52609;DHT22;38503;48.544;12.142;2022-08-19T07:34:54;20.10;99.90
52609;DHT22;38503;48.544;12.142;2022-08-19T07:37:23;20.30;99.90
52609;DHT22;38503;48.544;12.142;2022-08-19T07:39:58;20.40;99.90
52609;DHT22;38503;48.544;12.142;2022-08-19T07:42:26;20.70;99.90
52609;DHT22;38503;48.544;12.142;2022-08-19T07:44:54;20.80;99.90
52609;DHT22;38503;48.544;12.142;2022-08-19T07:47:21;20.90;99.90
52609;DHT22;38503;48.544;12.142;2022-08-19T07:50:10;21.00;99.90
52609;DHT22;38503;48.544;12.142;2022-08-19T07:52:38;21.10;99.90
52609;DHT22;38503;48.544;12.142;2022-08-19T07:55:07;20.90;99.90
52609;DHT22;38503;48.544;12.142;2022-08-19T07:57:55;21.00;99.90
52609;DHT22;38503;48.544;12.142;2022-08-19T08:00:22;21.60;99.90
52609;DHT22;38503;48.544;12.142;2022-08-19T08:02:50;21.90;86.60
52609;DHT22;38503;48.544;12.142;2022-08-19T08:05:22;22.50;69.20
52609;DHT22;38503;48.544;12.142;2022-08-19T08:08:11;23.40;45.40
52609;DHT22;38503;48.544;12.142;2022-08-19T08:10:56;23.50;27.90
52609;DHT22;38503;48.544;12.142;2022-08-19T08:13:24;23.40;35.00
52609;DHT22;38503;48.544;12.142;2022-08-19T08:15:52;23.80;23.20
52609;DHT22;38503;48.544;12.142;2022-08-19T08:18:25;24.10;19.90
52609;DHT22;38503;48.544;12.142;2022-08-19T08:20:56;24.00;19.00
52609;DHT22;38503;48.544;12.142;2022-08-19T08:23:24;23.40;27.50
52609;DHT22;38503;48.544;12.142;2022-08-19T08:25:55;23.60;32.60
52609;DHT22;38503;48.544;12.142;2022-08-19T08:28:24;23.80;29.30
52609;DHT22;38503;48.544;12.142;2022-08-19T08:30:55;24.10;19.60
52609;DHT22;38503;48.544;12.142;2022-08-19T08:33:25;23.90;23.10
52609;DHT22;38503;48.544;12.142;2022-08-19T08:36:06;23.70;26.80
52609;DHT22;38503;48.544;12.142;2022-08-19T08:38:35;23.50;29.50
52609;DHT22;38503;48.544;12.142;2022-08-19T08:43:40;23.10;49.90
52609;DHT22;38503;48.544;12.142;2022-08-19T08:46:21;22.70;52.70
52609;DHT22;38503;48.544;12.142;2022-08-19T08:51:45;22.30;68.10
52609;DHT22;38503;48.544;12.142;2022-08-19T08:54:33;22.20;67.70
52609;DHT22;38503;48.544;12.142;2022-08-19T08:57:06;22.40;69.00
52609;DHT22;38503;48.544;12.142;2022-08-19T08:59:36;22.20;67.80
52609;DHT22;38503;48.544;12.142;2022-08-19T09:02:04;22.10;77.70
52609;DHT22;38503;48.544;12.142;2022-08-19T09:04:31;22.00;81.80
52609;DHT22;38503;48.544;12.142;2022-08-19T09:07:17;22.10;75.40
52609;DHT22;38503;48.544;12.142;2022-08-19T09:10:13;21.80;82.10
52609;DHT22;38503;48.544;12.142;2022-08-19T09:13:05;21.80;91.90
52609;DHT22;38503;48.544;12.142;2022-08-19T09:15:42;21.70;92.70
52609;DHT22;38503;48.544;12.142;2022-08-19T09:18:13;21.60;96.60
52609;DHT22;38503;48.544;12.142;2022-08-19T09:20:46;21.50;99.90
52609;DHT22;38503;48.544;12.142;2022-08-19T09:23:14;21.30;99.90
52609;DHT22;38503;48.544;12.142;2022-08-19T09:25:41;21.10;99.90
52609;DHT22;38503;48.544;12.142;2022-08-19T09:28:11;21.10;99.90
52609;DHT22;38503;48.544;12.142;2022-08-19T09:30:48;20.90;99.90
52609;DHT22;38503;48.544;12.142;2022-08-19T09:33:18;20.30;99.90
52609;DHT22;38503;48.544;12.142;2022-08-19T09:35:46;20.10;99.90
52609;DHT22;38503;48.544;12.142;2022-08-19T09:38:18;20.00;99.90
52609;DHT22;38503;48.544;12.142;2022-08-19T09:40:45;19.90;99.90
52609;DHT22;38503;48.544;12.142;2022-08-19T09:43:12;19.70;99.90
52609;DHT22;38503;48.544;12.142;2022-08-19T09:45:39;19.70;99.90
52609;DHT22;38503;48.544;12.142;2022-08-19T09:48:06;19.70;99.90
52609;DHT22;38503;48.544;12.142;2022-08-19T09:50:35;19.60;99.90
52609;DHT22;38503;48.544;12.142;2022-08-19T09:53:17;19.60;99.90
52609;DHT22;38503;48.544;12.142;2022-08-19T09:55:44;19.70;99.90
52609;DHT22;38503;48.544;12.142;2022-08-19T09:58:11;19.80;99.90
52609;DHT22;38503;48.544;12.142;2022-08-19T10:00:39;19.80;99.90
52609;DHT22;38503;48.544;12.142;2022-08-19T10:03:05;19.80;99.90
52609;DHT22;38503;48.544;12.142;2022-08-19T10:05:34;19.80;99.90
52609;DHT22;38503;48.544;12.142;2022-08-19T10:08:30;19.80;99.90
52609;DHT22;38503;48.544;12.142;2022-08-19T10:10:59;19.80;99.90
52609;DHT22;38503;48.544;12.142;2022-08-19T10:13:48;19.90;99.90
52609;DHT22;38503;48.544;12.142;2022-08-19T10:16:20;20.00;99.90
52609;DHT22;38503;48.544;12.142;2022-08-19T10:18:52;20.10;99.90
52609;DHT22;38503;48.544;12.142;2022-08-19T10:21:27;20.20;99.90
52609;DHT22;38503;48.544;12.142;2022-08-19T10:24:01;20.30;99.90
52609;DHT22;38503;48.544;12.142;2022-08-19T10:26:33;20.50;99.90
52609;DHT22;38503;48.544;12.142;2022-08-19T10:29:00;20.60;99.90
52609;DHT22;38503;48.544;12.142;2022-08-19T10:31:30;20.40;99.90
52609;DHT22;38503;48.544;12.142;2022-08-19T10:34:17;20.50;99.90
52609;DHT22;38503;48.544;12.142;2022-08-19T10:36:53;20.60;99.90
52609;DHT22;38503;48.544;12.142;2022-08-19T10:39:26;20.90;99.90
52609;DHT22;38503;48.544;12.142;2022-08-19T10:42:07;20.80;99.90
52609;DHT22;38503;48.544;12.142;2022-08-19T10:44:34;20.60;99.90
52609;DHT22;38503;48.544;12.142;2022-08-19T10:47:02;20.80;99.90
52609;DHT22;38503;48.544;12.142;2022-08-19T10:49:43;20.80;99.90
52609;DHT22;38503;48.544;12.142;2022-08-19T10:52:28;20.70;99.90
52609;DHT22;38503;48.544;12.142;2022-08-19T10:55:06;20.80;99.90
52609;DHT22;38503;48.544;12.142;2022-08-19T10:57:55;20.80;99.90
52609;DHT22;38503;48.544;12.142;2022-08-19T11:00:28;20.90;99.90
52609;DHT22;38503;48.544;12.142;2022-08-19T11:02:57;21.00;99.90
52609;DHT22;38503;48.544;12.142;2022-08-19T11:05:24;21.10;99.90
52609;DHT22;38503;48.544;12.142;2022-08-19T11:07:51;21.20;99.90
52609;DHT22;38503;48.544;12.142;2022-08-19T11:10:19;21.10;99.90
52609;DHT22;38503;48.544;12.142;2022-08-19T11:12:48;21.20;99.90
52609;DHT22;38503;48.544;12.142;2022-08-19T11:15:17;21.50;99.90
52609;DHT22;38503;48.544;12.142;2022-08-19T11:17:44;21.60;99.90
52609;DHT22;38503;48.544;12.142;2022-08-19T11:20:12;21.40;99.90
52609;DHT22;38503;48.544;12.142;2022-08-19T11:22:40;21.40;99.90
52609;DHT22;38503;48.544;12.142;2022-08-19T11:25:09;21.30;99.90
52609;DHT22;38503;48.544;12.142;2022-08-19T11:27:41;21.00;99.90
52609;DHT22;38503;48.544;12.142;2022-08-19T11:30:37;21.00;99.90
52609;DHT22;38503;48.544;12.142;2022-08-19T11:33:22;20.90;99.90
52609;DHT22;38503;48.544;12.142;2022-08-19T11:35:49;20.80;99.90
52609;DHT22;38503;48.544;12.142;2022-08-19T11:38:16;20.90;99.90
52609;DHT22;38503;48.544;12.142;2022-08-19T11:40:43;21.10;99.90
52609;DHT22;38503;48.544;12.142;2022-08-19T11:43:10;21.10;99.90
52609;DHT22;38503;48.544;12.142;2022-08-19T11:45:37;21.30;99.90
52609;DHT22;38503;48.544;12.142;2022-08-19T11:48:04;21.40;99.90
52609;DHT22;38503;48.544;12.142;2022-08-19T11:50:30;21.30;99.90
52609;DHT22;38503;48.544;12.142;2022-08-19T11:52:57;21.60;99.90
52609;DHT22;38503;48.544;12.142;2022-08-19T11:55:24;21.80;99.90
52609;DHT22;38503;48.544;12.142;2022-08-19T11:57:51;21.90;99.90
52609;DHT22;38503;48.544;12.142;2022-08-19T12:00:18;22.00;99.10
52609;DHT22;38503;48.544;12.142;2022-08-19T12:02:45;21.90;99.10
52609;DHT22;38503;48.544;12.142;2022-08-19T12:05:12;21.70;99.90
52609;DHT22;38503;48.544;12.142;2022-08-19T12:07:40;21.50;99.90
52609;DHT22;38503;48.544;12.142;2022-08-19T12:10:08;21.40;99.90
52609;DHT22;38503;48.544;12.142;2022-08-19T12:12:37;21.40;99.90
52609;DHT22;38503;48.544;12.142;2022-08-19T12:15:09;21.60;99.90
52609;DHT22;38503;48.544;12.142;2022-08-19T12:17:38;21.70;99.90
52609;DHT22;38503;48.544;12.142;2022-08-19T12:20:09;21.70;99.90
52609;DHT22;38503;48.544;12.142;2022-08-19T12:22:37;22.20;99.90
52609;DHT22;38503;48.544;12.142;2022-08-19T12:25:05;22.70;92.00
52609;DHT22;38503;48.544;12.142;2022-08-19T12:27:32;23.20;82.50
52609;DHT22;38503;48.544;12.142;2022-08-19T12:30:19;23.40;51.40
52609;DHT22;38503;48.544;12.142;2022-08-19T12:32:46;23.80;39.00
52609;DHT22;38503;48.544;12.142;2022-08-19T12:35:13;23.90;38.10
52609;DHT22;38503;48.544;12.142;2022-08-19T12:37:40;23.60;45.10
52609;DHT22;38503;48.544;12.142;2022-08-19T12:40:09;24.00;32.20
52609;DHT22;38503;48.544;12.142;2022-08-19T12:42:39;25.20;12.20
52609;DHT22;38503;48.544;12.142;2022-08-19T12:45:10;25.80;1.00
52609;DHT22;38503;48.544;12.142;2022-08-19T12:47:37;25.90;1.00
52609;DHT22;38503;48.544;12.142;2022-08-19T12:50:08;25.80;1.00
52609;DHT22;38503;48.544;12.142;2022-08-19T12:52:36;26.20;1.00
52609;DHT22;38503;48.544;12.142;2022-08-19T12:55:05;26.60;1.00
52609;DHT22;38503;48.544;12.142;2022-08-19T12:57:32;26.80;1.00
52609;DHT22;38503;48.544;12.142;2022-08-19T13:00:05;25.50;1.00
52609;DHT22;38503;48.544;12.142;2022-08-19T13:02:38;25.50;1.00
52609;DHT22;38503;48.544;12.142;2022-08-19T13:05:07;25.40;1.00
52609;DHT22;38503;48.544;12.142;2022-08-19T13:07:36;25.20;1.00
52609;DHT22;38503;48.544;12.142;2022-08-19T13:10:09;24.90;1.00
52609;DHT22;38503;48.544;12.142;2022-08-19T13:12:36;24.60;1.00
52609;DHT22;38503;48.544;12.142;2022-08-19T13:15:03;24.40;1.00
52609;DHT22;38503;48.544;12.142;2022-08-19T13:17:38;23.80;13.80
52609;DHT22;38503;48.544;12.142;2022-08-19T13:20:06;24.00;16.80
52609;DHT22;38503;48.544;12.142;2022-08-19T13:22:34;23.50;22.10
52609;DHT22;38503;48.544;12.142;2022-08-19T13:25:06;23.10;35.30
52609;DHT22;38503;48.544;12.142;2022-08-19T13:27:33;22.90;46.40
52609;DHT22;38503;48.544;12.142;2022-08-19T13:30:01;22.70;66.30
52609;DHT22;38503;48.544;12.142;2022-08-19T13:32:47;22.90;70.70
52609;DHT22;38503;48.544;12.142;2022-08-19T13:35:33;22.90;73.10
52609;DHT22;38503;48.544;12.142;2022-08-19T13:38:00;23.00;79.90
52609;DHT22;38503;48.544;12.142;2022-08-19T13:40:38;22.60;84.00
52609;DHT22;38503;48.544;12.142;2022-08-19T13:43:07;22.70;76.00
52609;DHT22;38503;48.544;12.142;2022-08-19T13:45:50;22.70;90.40
52609;DHT22;38503;48.544;12.142;2022-08-19T13:48:19;22.90;84.70
52609;DHT22;38503;48.544;12.142;2022-08-19T13:50:46;22.80;88.30
52609;DHT22;38503;48.544;12.142;2022-08-19T13:53:15;22.90;85.00
52609;DHT22;38503;48.544;12.142;2022-08-19T13:55:43;22.70;85.00
52609;DHT22;38503;48.544;12.142;2022-08-19T13:58:11;22.50;92.20
52609;DHT22;38503;48.544;12.142;2022-08-19T14:00:42;22.10;97.50
52609;DHT22;38503;48.544;12.142;2022-08-19T14:03:10;22.10;99.90
52609;DHT22;38503;48.544;12.142;2022-08-19T14:05:37;22.20;99.90
52609;DHT22;38503;48.544;12.142;2022-08-19T14:08:04;22.40;99.90
52609;DHT22;38503;48.544;12.142;2022-08-19T14:10:31;22.20;98.80
52609;DHT22;38503;48.544;12.142;2022-08-19T14:13:01;22.00;99.90
52609;DHT22;38503;48.544;12.142;2022-08-19T14:15:28;22.10;99.90
52609;DHT22;38503;48.544;12.142;2022-08-19T14:17:55;21.80;99.90
52609;DHT22;38503;48.544;12.142;2022-08-19T14:20:23;21.70;99.90
52609;DHT22;38503;48.544;12.142;2022-08-19T14:22:52;21.90;99.90
52609;DHT22;38503;48.544;12.142;2022-08-19T14:25:26;22.00;99.90
52609;DHT22;38503;48.544;12.142;2022-08-19T14:27:54;22.10;99.90
52609;DHT22;38503;48.544;12.142;2022-08-19T14:30:27;22.20;99.90
52609;DHT22;38503;48.544;12.142;2022-08-19T14:32:56;22.30;97.70
52609;DHT22;38503;48.544;12.142;2022-08-19T14:35:26;22.30;92.70
52609;DHT22;38503;48.544;12.142;2022-08-19T14:37:53;22.60;93.10
52609;DHT22;38503;48.544;12.142;2022-08-19T14:40:25;22.80;92.80
52609;DHT22;38503;48.544;12.142;2022-08-19T14:42:53;22.90;88.60
52609;DHT22;38503;48.544;12.142;2022-08-19T14:45:27;22.80;77.50
52609;DHT22;38503;48.544;12.142;2022-08-19T14:47:54;23.10;72.40
52609;DHT22;38503;48.544;12.142;2022-08-19T14:50:22;23.30;73.90
52609;DHT22;38503;48.544;12.142;2022-08-19T14:52:49;23.50;65.00
52609;DHT22;38503;48.544;12.142;2022-08-19T14:55:17;23.60;64.40
52609;DHT22;38503;48.544;12.142;2022-08-19T14:57:44;23.40;61.70
52609;DHT22;38503;48.544;12.142;2022-08-19T15:00:12;23.00;71.90
52609;DHT22;38503;48.544;12.142;2022-08-19T15:02:41;22.90;73.80
52609;DHT22;38503;48.544;12.142;2022-08-19T15:05:10;23.10;65.40
52609;DHT22;38503;48.544;12.142;2022-08-19T15:07:37;23.00;57.50
52609;DHT22;38503;48.544;12.142;2022-08-19T15:10:06;22.70;71.00
52609;DHT22;38503;48.544;12.142;2022-08-19T15:12:37;22.90;75.70
52609;DHT22;38503;48.544;12.142;2022-08-19T15:15:11;23.20;66.50
52609;DHT22;38503;48.544;12.142;2022-08-19T15:17:41;22.80;76.50
52609;DHT22;38503;48.544;12.142;2022-08-19T15:20:18;23.10;74.40
52609;DHT22;38503;48.544;12.142;2022-08-19T15:22:45;23.20;72.90
52609;DHT22;38503;48.544;12.142;2022-08-19T15:25:15;23.30;66.90
52609;DHT22;38503;48.544;12.142;2022-08-19T15:27:42;23.70;59.50
52609;DHT22;38503;48.544;12.142;2022-08-19T15:30:10;24.20;44.10
52609;DHT22;38503;48.544;12.142;2022-08-19T15:32:38;24.50;38.00
52609;DHT22;38503;48.544;12.142;2022-08-19T15:35:06;24.90;28.00
52609;DHT22;38503;48.544;12.142;2022-08-19T15:37:34;24.50;4.90
52609;DHT22;38503;48.544;12.142;2022-08-19T15:40:04;24.30;16.90
52609;DHT22;38503;48.544;12.142;2022-08-19T15:42:35;24.30;8.70
52609;DHT22;38503;48.544;12.142;2022-08-19T15:45:07;23.80;12.80